createdAt,value
2023-06-17T00:00:43.655Z,5.70
2023-06-17T00:03:07.007Z,5.70
2023-06-17T00:05:30.380Z,5.93
2023-06-17T00:07:53.908Z,6.00
2023-06-17T00:10:19.060Z,6.85
2023-06-17T00:12:44.487Z,6.60
2023-06-17T00:15:09.970Z,6.20
2023-06-17T00:17:34.046Z,5.82
2023-06-17T00:19:57.829Z,5.15
2023-06-17T00:22:21.038Z,5.45
2023-06-17T00:24:44.295Z,6.05
2023-06-17T00:27:09.107Z,5.75
2023-06-17T00:29:32.758Z,5.57
2023-06-17T00:31:56.042Z,5.45
2023-06-17T00:34:19.292Z,6.18
2023-06-17T00:36:42.490Z,5.80
2023-06-17T00:39:06.449Z,6.10
2023-06-17T00:41:31.878Z,6.47
2023-06-17T00:43:56.944Z,5.85
2023-06-17T00:46:30.480Z,5.50
2023-06-17T00:48:53.757Z,6.47
2023-06-17T00:51:18.236Z,5.88
2023-06-17T00:53:42.678Z,5.78
2023-06-17T00:56:06.479Z,5.63
2023-06-17T00:58:30.006Z,6.20
2023-06-17T01:00:54.576Z,6.05
2023-06-17T01:03:18.871Z,5.93
2023-06-17T01:05:42.378Z,6.10
2023-06-17T01:08:17.975Z,5.95
2023-06-17T01:10:49.020Z,6.32
2023-06-17T01:13:15.133Z,7.07
2023-06-17T01:15:39.206Z,6.10
2023-06-17T01:18:05.945Z,5.43
2023-06-17T01:20:29.882Z,6.13
2023-06-17T01:22:55.618Z,6.22
2023-06-17T01:25:21.670Z,6.00
2023-06-17T01:27:44.930Z,6.13
2023-06-17T01:30:10.588Z,6.13
2023-06-17T01:32:33.898Z,5.88
2023-06-17T01:35:02.531Z,6.50
2023-06-17T01:37:32.261Z,5.85
2023-06-17T01:39:58.718Z,6.25
2023-06-17T01:42:32.608Z,6.30
2023-06-17T01:44:57.324Z,6.05
2023-06-17T01:47:20.718Z,5.35
2023-06-17T01:49:44.011Z,5.90
2023-06-17T01:52:10.574Z,6.00
2023-06-17T01:54:33.863Z,6.22
2023-06-17T01:56:58.613Z,6.00
2023-06-17T01:59:23.190Z,5.93
2023-06-17T02:01:46.411Z,6.03
2023-06-17T02:04:09.644Z,6.10
2023-06-17T02:06:36.383Z,6.15
2023-06-17T02:08:59.647Z,6.20
2023-06-17T02:11:22.887Z,5.50
2023-06-17T02:13:46.165Z,5.68
2023-06-17T02:16:11.423Z,6.72
2023-06-17T02:18:34.827Z,6.30
2023-06-17T02:20:58.058Z,6.55
2023-06-17T02:23:21.423Z,6.13
2023-06-17T02:25:45.129Z,5.95
2023-06-17T02:28:08.655Z,5.97
2023-06-17T02:30:31.859Z,5.93
2023-06-17T02:32:56.449Z,5.63
2023-06-17T02:35:25.218Z,6.00
2023-06-17T02:37:52.607Z,6.32
2023-06-17T02:40:15.972Z,6.25
2023-06-17T02:42:39.350Z,6.45
2023-06-17T02:45:02.616Z,6.22
2023-06-17T02:47:25.860Z,5.90
2023-06-17T02:49:50.491Z,6.65
2023-06-17T02:52:13.630Z,5.43
2023-06-17T02:54:36.800Z,5.80
2023-06-17T02:57:02.955Z,6.63
2023-06-17T02:59:26.825Z,6.10
2023-06-17T03:01:53.074Z,5.68
2023-06-17T03:04:21.785Z,6.68
2023-06-17T03:06:46.418Z,6.47
2023-06-17T03:09:10.653Z,6.35
2023-06-17T03:11:33.926Z,6.13
2023-06-17T03:13:59.739Z,6.13
2023-06-17T03:16:26.875Z,6.38
2023-06-17T03:18:50.365Z,6.40
2023-06-17T03:21:14.004Z,6.70
2023-06-17T03:23:41.401Z,6.55
2023-06-17T03:26:04.930Z,6.15
2023-06-17T03:28:28.183Z,6.28
2023-06-17T03:30:53.351Z,6.65
2023-06-17T03:33:16.763Z,6.50
2023-06-17T03:35:41.219Z,6.60
2023-06-17T03:38:04.864Z,6.10
2023-06-17T03:40:30.093Z,5.97
2023-06-17T03:42:55.676Z,6.55
2023-06-17T03:45:19.330Z,6.55
2023-06-17T03:47:43.290Z,6.43
2023-06-17T03:50:08.779Z,6.95
2023-06-17T03:52:31.958Z,6.70
2023-06-17T03:54:56.617Z,6.20
2023-06-17T03:57:21.679Z,6.20
2023-06-17T03:59:44.999Z,6.55
2023-06-17T04:02:08.343Z,6.78
2023-06-17T04:04:33.743Z,6.10
2023-06-17T04:06:57.237Z,6.95
2023-06-17T04:09:20.497Z,7.82
2023-06-17T04:11:43.718Z,7.05
2023-06-17T04:14:09.427Z,6.97
2023-06-17T04:16:34.772Z,6.65
2023-06-17T04:18:58.699Z,7.10
2023-06-17T04:21:23.845Z,7.47
2023-06-17T04:23:47.542Z,7.75
2023-06-17T04:26:14.183Z,7.80
2023-06-17T04:28:37.929Z,7.85
2023-06-17T04:31:03.296Z,7.90
2023-06-17T04:33:31.844Z,7.35
2023-06-17T04:35:56.972Z,7.60
2023-06-17T04:38:21.200Z,7.47
2023-06-17T04:40:44.487Z,7.90
2023-06-17T04:43:08.188Z,7.47
2023-06-17T04:45:31.601Z,8.13
2023-06-17T04:47:58.245Z,7.25
2023-06-17T04:50:22.223Z,7.78
2023-06-17T04:52:46.081Z,8.30
2023-06-17T04:55:12.195Z,7.65
2023-06-17T04:57:35.500Z,7.65
2023-06-17T04:59:58.743Z,7.28
2023-06-17T05:02:22.041Z,8.18
2023-06-17T05:04:46.675Z,7.63
2023-06-17T05:07:10.040Z,7.32
2023-06-17T05:09:35.446Z,7.78
2023-06-17T05:11:58.777Z,7.70
2023-06-17T05:14:22.051Z,7.55
2023-06-17T05:16:46.158Z,7.78
2023-06-17T05:19:09.438Z,8.10
2023-06-17T05:21:34.194Z,8.93
2023-06-17T05:23:57.444Z,8.85
2023-06-17T05:26:20.969Z,7.85
2023-06-17T05:28:44.244Z,8.73
2023-06-17T05:31:07.657Z,8.60
2023-06-17T05:33:32.384Z,7.88
2023-06-17T05:35:55.932Z,8.82
2023-06-17T05:38:20.428Z,7.70
2023-06-17T05:40:43.928Z,8.73
2023-06-17T05:43:07.422Z,8.45
2023-06-17T05:45:30.640Z,8.13
2023-06-17T05:47:54.295Z,7.90
2023-06-17T05:50:18.746Z,8.15
2023-06-17T05:52:43.136Z,8.32
2023-06-17T05:55:33.061Z,8.40
2023-06-17T05:57:56.322Z,8.50
2023-06-17T06:00:20.670Z,8.52
2023-06-17T06:02:44.399Z,9.00
2023-06-17T06:05:09.692Z,8.43
2023-06-17T06:07:34.000Z,8.80
2023-06-17T06:09:57.254Z,8.82
2023-06-17T06:12:21.865Z,8.45
2023-06-17T06:14:46.054Z,7.80
2023-06-17T06:17:09.612Z,7.82
2023-06-17T06:19:32.811Z,8.15
2023-06-17T06:21:56.052Z,9.10
2023-06-17T06:24:19.833Z,8.18
2023-06-17T06:26:43.275Z,7.65
2023-06-17T06:29:10.477Z,8.25
2023-06-17T06:31:34.214Z,9.88
2023-06-17T06:33:57.914Z,10.82
2023-06-17T06:36:21.714Z,10.73
2023-06-17T06:38:45.146Z,10.23
2023-06-17T06:41:08.353Z,11.40
2023-06-17T06:43:36.897Z,9.85
2023-06-17T06:46:02.222Z,11.40
2023-06-17T06:48:26.251Z,10.50
2023-06-17T06:50:49.529Z,10.57
2023-06-17T06:53:13.377Z,10.52
2023-06-17T06:55:36.610Z,8.95
2023-06-17T06:57:59.852Z,8.77
2023-06-17T07:00:23.467Z,7.50
2023-06-17T07:02:48.613Z,7.25
2023-06-17T07:05:12.535Z,8.23
2023-06-17T07:07:41.490Z,8.18
2023-06-17T07:10:05.310Z,8.25
2023-06-17T07:12:28.728Z,6.88
2023-06-17T07:14:51.891Z,6.65
2023-06-17T07:17:15.866Z,6.70
2023-06-17T07:19:40.701Z,6.78
2023-06-17T07:22:06.208Z,7.70
2023-06-17T07:24:29.494Z,7.35
2023-06-17T07:26:52.741Z,5.60
2023-06-17T07:29:16.530Z,5.40
2023-06-17T07:31:39.942Z,6.30
2023-06-17T07:34:03.239Z,6.07
2023-06-17T07:36:28.493Z,4.55
2023-06-17T07:38:52.612Z,4.93
2023-06-17T07:41:15.795Z,5.07
2023-06-17T07:43:38.978Z,4.78
2023-06-17T07:46:02.200Z,4.85
2023-06-17T07:48:25.509Z,4.30
2023-06-17T07:50:48.708Z,5.45
2023-06-17T07:53:14.207Z,5.18
2023-06-17T07:55:38.699Z,5.25
2023-06-17T07:58:02.801Z,4.72
2023-06-17T08:00:26.102Z,5.20
2023-06-17T08:02:49.392Z,4.85
2023-06-17T08:05:12.705Z,4.78
2023-06-17T08:07:36.296Z,4.35
2023-06-17T08:10:00.855Z,5.07
2023-06-17T08:12:24.138Z,4.88
2023-06-17T08:14:47.411Z,4.00
2023-06-17T08:17:10.683Z,4.03
2023-06-17T08:19:34.257Z,4.72
2023-06-17T08:21:57.587Z,4.28
2023-06-17T08:24:24.183Z,4.18
2023-06-17T08:26:49.061Z,4.30
2023-06-17T08:29:12.655Z,4.28
2023-06-17T08:31:35.843Z,4.22
2023-06-17T08:33:58.970Z,4.20
2023-06-17T08:36:22.124Z,4.20
2023-06-17T08:38:45.270Z,3.65
2023-06-17T08:41:08.605Z,4.03
2023-06-17T08:43:34.395Z,4.00
2023-06-17T08:45:58.703Z,3.80
2023-06-17T08:48:22.174Z,3.72
2023-06-17T08:50:46.934Z,3.90
2023-06-17T08:53:10.492Z,4.22
2023-06-17T08:55:33.650Z,3.70
2023-06-17T08:57:57.633Z,4.18
2023-06-17T09:00:22.724Z,4.20
2023-06-17T09:02:47.562Z,4.60
2023-06-17T09:05:10.893Z,4.63
2023-06-17T09:07:34.236Z,4.50
2023-06-17T09:09:57.538Z,4.50
2023-06-17T09:12:20.785Z,3.65
2023-06-17T09:14:46.550Z,4.40
2023-06-17T09:17:11.333Z,4.65
2023-06-17T09:19:34.631Z,4.40
2023-06-17T09:21:59.522Z,4.10
2023-06-17T09:24:31.776Z,4.43
2023-06-17T09:26:55.171Z,4.57
2023-06-17T09:29:18.722Z,4.40
2023-06-17T09:31:52.628Z,4.57
2023-06-17T09:34:17.544Z,4.40
2023-06-17T09:36:41.115Z,4.47
2023-06-17T09:39:07.721Z,4.53
2023-06-17T09:41:38.300Z,4.53
2023-06-17T09:44:01.999Z,4.30
2023-06-17T09:46:30.414Z,4.60
2023-06-17T09:48:54.414Z,4.38
2023-06-17T09:51:21.337Z,4.47
2023-06-17T09:53:48.664Z,4.13
2023-06-17T09:56:13.532Z,3.97
2023-06-17T09:58:37.900Z,4.00
2023-06-17T10:01:07.744Z,3.92
2023-06-17T10:03:32.130Z,4.30
2023-06-17T10:06:05.755Z,4.30
2023-06-17T10:08:32.750Z,4.28
2023-06-17T10:11:00.723Z,4.38
2023-06-17T10:13:25.456Z,4.60
2023-06-17T10:15:50.291Z,4.03
2023-06-17T10:18:15.040Z,3.70
2023-06-17T10:20:38.865Z,3.53
2023-06-17T10:23:03.075Z,4.35
2023-06-17T10:25:29.187Z,4.30
2023-06-17T10:27:52.596Z,3.85
2023-06-17T10:30:29.530Z,4.20
2023-06-17T10:32:59.292Z,4.03
2023-06-17T10:35:22.536Z,4.32
2023-06-17T10:37:49.562Z,4.25
2023-06-17T10:40:28.973Z,4.30
2023-06-17T10:42:59.763Z,4.10
2023-06-17T10:45:23.024Z,4.40
2023-06-17T10:47:46.279Z,4.22
2023-06-17T10:50:09.666Z,4.13
2023-06-17T10:52:33.099Z,4.00
2023-06-17T10:54:57.100Z,3.67
2023-06-17T10:57:33.938Z,4.25
2023-06-17T10:59:57.300Z,4.68
2023-06-17T11:02:23.323Z,4.00
2023-06-17T11:04:47.306Z,4.50
2023-06-17T11:07:11.074Z,4.30
2023-06-17T11:09:36.734Z,4.20
2023-06-17T11:12:03.237Z,4.40
2023-06-17T11:14:30.044Z,4.10
2023-06-17T11:16:53.479Z,4.22
2023-06-17T11:19:16.799Z,4.50
2023-06-17T11:21:39.956Z,4.60
2023-06-17T11:24:03.619Z,4.32
2023-06-17T11:26:27.480Z,4.88
2023-06-17T11:28:51.589Z,4.40
2023-06-17T11:31:16.518Z,4.70
2023-06-17T11:33:41.953Z,4.28
2023-06-17T11:36:08.664Z,4.53
2023-06-17T11:38:32.402Z,4.55
2023-06-17T11:40:56.990Z,4.53
2023-06-17T11:43:24.679Z,4.18
2023-06-17T11:45:48.194Z,4.60
2023-06-17T11:48:14.131Z,4.03
2023-06-17T11:50:39.052Z,4.45
2023-06-17T11:53:04.486Z,4.40
2023-06-17T11:55:35.526Z,4.32
2023-06-17T11:57:58.814Z,4.25
2023-06-17T12:00:22.564Z,4.05
2023-06-17T12:02:46.195Z,4.13
2023-06-17T12:05:11.440Z,4.40
2023-06-17T12:07:39.645Z,4.50
2023-06-17T12:10:02.883Z,4.72
2023-06-17T12:12:36.559Z,4.53
2023-06-17T12:15:07.440Z,4.53
2023-06-17T12:17:40.145Z,4.20
2023-06-17T12:20:03.459Z,4.68
2023-06-17T12:22:27.989Z,4.38
2023-06-17T12:24:51.174Z,4.40
2023-06-17T12:27:14.856Z,4.13
2023-06-17T12:29:38.044Z,4.38
2023-06-17T12:32:01.299Z,4.20
2023-06-17T12:34:24.498Z,5.40
2023-06-17T12:36:48.357Z,4.50
2023-06-17T12:39:12.990Z,4.15
2023-06-17T12:41:36.674Z,4.13
2023-06-17T12:43:59.852Z,3.83
2023-06-17T12:46:24.210Z,4.28
2023-06-17T12:48:49.016Z,4.00
2023-06-17T12:51:13.009Z,3.83
2023-06-17T12:53:38.158Z,4.00
2023-06-17T12:56:02.719Z,4.00
2023-06-17T12:58:26.501Z,4.32
2023-06-17T13:00:50.119Z,4.32
2023-06-17T13:03:16.184Z,4.63
2023-06-17T13:05:39.617Z,4.60
2023-06-17T13:08:04.113Z,4.10
2023-06-17T13:10:27.769Z,3.88
2023-06-17T13:12:52.537Z,4.38
2023-06-17T13:15:15.983Z,4.45
2023-06-17T13:17:39.932Z,3.65
2023-06-17T13:20:04.338Z,4.10
2023-06-17T13:22:28.519Z,4.35
2023-06-17T13:24:52.293Z,4.93
2023-06-17T13:27:19.656Z,4.22
2023-06-17T13:29:44.497Z,4.15
2023-06-17T13:32:08.234Z,4.70
2023-06-17T13:34:31.427Z,3.88
2023-06-17T13:36:55.063Z,4.43
2023-06-17T13:39:18.523Z,4.10
2023-06-17T13:41:41.739Z,4.35
2023-06-17T13:44:06.581Z,4.15
2023-06-17T13:46:31.617Z,4.25
2023-06-17T13:48:55.788Z,3.90
2023-06-17T13:51:19.764Z,4.55
2023-06-17T13:53:42.999Z,4.15
2023-06-17T13:56:07.034Z,3.80
2023-06-17T13:58:30.266Z,4.22
2023-06-17T14:00:53.581Z,4.13
2023-06-17T14:03:19.303Z,4.45
2023-06-17T14:05:44.405Z,4.40
2023-06-17T14:08:08.226Z,4.40
2023-06-17T14:10:31.554Z,4.25
2023-06-17T14:12:57.830Z,4.15
2023-06-17T14:15:23.092Z,4.40
2023-06-17T14:17:46.739Z,4.40
2023-06-17T14:20:14.884Z,4.13
2023-06-17T14:22:39.568Z,4.35
2023-06-17T14:25:04.253Z,4.43
2023-06-17T14:27:39.843Z,4.50
2023-06-17T14:30:03.915Z,4.55
2023-06-17T14:32:27.093Z,4.60
2023-06-17T14:34:51.413Z,4.90
2023-06-17T14:37:16.052Z,4.00
2023-06-17T14:39:39.331Z,4.63
2023-06-17T14:42:02.635Z,4.18
2023-06-17T14:44:25.948Z,4.28
2023-06-17T14:46:49.496Z,4.60
2023-06-17T14:49:12.628Z,4.97
2023-06-17T14:51:35.915Z,4.30
2023-06-17T14:54:00.537Z,4.10
2023-06-17T14:56:28.616Z,4.28
2023-06-17T14:58:51.797Z,4.75
2023-06-17T15:01:15.081Z,4.78
2023-06-17T15:03:38.433Z,4.30
2023-06-17T15:06:01.836Z,4.03
2023-06-17T15:08:27.873Z,5.00
2023-06-17T15:10:53.157Z,4.88
2023-06-17T15:13:18.159Z,4.97
2023-06-17T15:15:46.710Z,4.50
2023-06-17T15:18:15.387Z,4.57
2023-06-17T15:20:39.910Z,4.50
2023-06-17T15:23:08.789Z,4.78
2023-06-17T15:25:35.697Z,4.70
2023-06-17T15:28:01.043Z,4.63
2023-06-17T15:30:25.668Z,4.30
2023-06-17T15:32:49.120Z,4.63
2023-06-17T15:35:12.340Z,3.90
2023-06-17T15:37:37.365Z,5.20
2023-06-17T15:40:00.899Z,4.05
2023-06-17T15:42:24.130Z,4.40
2023-06-17T15:44:48.688Z,4.60
2023-06-17T15:47:11.855Z,4.32
2023-06-17T15:49:35.850Z,4.72
2023-06-17T15:51:59.086Z,4.38
2023-06-17T15:54:26.365Z,4.10
2023-06-17T15:56:49.567Z,4.15
2023-06-17T15:59:12.842Z,4.70
2023-06-17T16:01:37.523Z,4.38
2023-06-17T16:04:09.723Z,4.13
2023-06-17T16:06:36.283Z,4.75
2023-06-17T16:08:59.425Z,4.80
2023-06-17T16:11:22.706Z,4.35
2023-06-17T16:13:45.930Z,4.38
2023-06-17T16:16:09.138Z,4.80
2023-06-17T16:18:33.774Z,4.32
2023-06-17T16:20:57.008Z,4.40
2023-06-17T16:23:21.215Z,4.60
2023-06-17T16:25:54.714Z,4.35
2023-06-17T16:28:19.352Z,4.68
2023-06-17T16:30:43.562Z,4.20
2023-06-17T16:33:06.930Z,5.25
2023-06-17T16:35:31.626Z,4.65
2023-06-17T16:37:54.885Z,4.30
2023-06-17T16:40:18.075Z,4.80
2023-06-17T16:42:41.301Z,4.95
2023-06-17T16:45:05.709Z,5.00
2023-06-17T16:47:29.061Z,4.57
2023-06-17T16:49:52.243Z,4.90
2023-06-17T16:52:17.320Z,4.70
2023-06-17T16:54:40.568Z,4.65
2023-06-17T16:57:04.262Z,4.28
2023-06-17T16:59:27.546Z,4.47
2023-06-17T17:01:50.896Z,4.43
2023-06-17T17:04:15.156Z,4.68
2023-06-17T17:06:38.634Z,4.60
2023-06-17T17:09:03.164Z,4.40
2023-06-17T17:11:26.609Z,4.90
2023-06-17T17:13:50.323Z,4.60
2023-06-17T17:16:13.734Z,4.75
2023-06-17T17:18:37.061Z,4.43
2023-06-17T17:21:00.334Z,4.72
2023-06-17T17:23:23.764Z,4.18
2023-06-17T17:25:48.725Z,4.82
2023-06-17T17:28:12.009Z,4.55
2023-06-17T17:30:35.811Z,4.47
2023-06-17T17:32:59.085Z,4.07
2023-06-17T17:35:22.374Z,4.43
2023-06-17T17:37:45.602Z,4.70
2023-06-17T17:40:10.051Z,4.90
2023-06-17T17:42:34.591Z,4.28
2023-06-17T17:44:57.853Z,4.25
2023-06-17T17:47:22.513Z,4.40
2023-06-17T17:49:46.008Z,4.35
2023-06-17T17:52:09.739Z,4.32
2023-06-17T17:54:33.483Z,4.43
2023-06-17T17:56:56.742Z,4.40
2023-06-17T17:59:21.592Z,5.03
2023-06-17T18:01:44.848Z,4.57
2023-06-17T18:04:09.970Z,4.30
2023-06-17T18:06:33.207Z,3.90
2023-06-17T18:08:56.594Z,4.53
2023-06-17T18:11:20.086Z,4.40
2023-06-17T18:13:43.461Z,4.03
2023-06-17T18:16:08.377Z,4.28
2023-06-17T18:18:31.575Z,3.97
2023-06-17T18:20:54.810Z,4.63
2023-06-17T18:23:18.021Z,4.43
2023-06-17T18:25:41.209Z,4.38
2023-06-17T18:28:04.726Z,4.38
2023-06-17T18:30:29.329Z,4.57
2023-06-17T18:32:53.920Z,4.50
2023-06-17T18:35:17.386Z,5.25
2023-06-17T18:37:42.617Z,5.13
2023-06-17T18:40:07.093Z,4.38
2023-06-17T18:42:30.957Z,5.15
2023-06-17T18:44:54.219Z,5.38
2023-06-17T18:47:17.645Z,5.55
2023-06-17T18:49:43.565Z,5.00
2023-06-17T18:52:07.999Z,5.30
2023-06-17T18:54:31.142Z,4.95
2023-06-17T18:56:54.365Z,5.03
2023-06-17T18:59:17.566Z,5.00
2023-06-17T19:01:41.019Z,4.80
2023-06-17T19:04:04.904Z,4.82
2023-06-17T19:06:29.658Z,5.22
2023-06-17T19:08:52.886Z,4.95
2023-06-17T19:11:16.366Z,5.35
2023-06-17T19:13:39.647Z,5.38
2023-06-17T19:16:02.908Z,5.30
2023-06-17T19:18:26.354Z,5.38
2023-06-17T19:20:49.534Z,5.68
2023-06-17T19:23:14.226Z,5.32
2023-06-17T19:25:37.465Z,5.15
2023-06-17T19:28:00.887Z,5.50
2023-06-17T19:30:24.453Z,5.40
2023-06-17T19:32:48.311Z,5.82
2023-06-17T19:35:11.794Z,5.35
2023-06-17T19:37:36.582Z,5.25
2023-06-17T19:40:01.531Z,5.80
2023-06-17T19:42:25.042Z,5.38
2023-06-17T19:44:56.825Z,6.35
2023-06-17T19:47:20.207Z,5.93
2023-06-17T19:49:43.387Z,5.95
2023-06-17T19:52:08.075Z,5.68
2023-06-17T19:54:31.271Z,6.18
2023-06-17T19:56:56.479Z,6.55
2023-06-17T19:59:20.822Z,6.25
2023-06-17T20:01:44.209Z,6.22
2023-06-17T20:04:07.448Z,6.13
2023-06-17T20:06:31.321Z,6.45
2023-06-17T20:08:54.514Z,6.28
2023-06-17T20:11:17.746Z,6.57
2023-06-17T20:13:42.367Z,6.25
2023-06-17T20:16:06.355Z,6.10
2023-06-17T20:18:29.543Z,6.45
2023-06-17T20:20:52.842Z,7.00
2023-06-17T20:23:16.035Z,7.05
2023-06-17T20:25:39.300Z,6.57
2023-06-17T20:28:02.505Z,6.47
2023-06-17T20:30:27.083Z,6.80
2023-06-17T20:32:50.578Z,7.30
2023-06-17T20:35:14.031Z,7.13
2023-06-17T20:37:37.948Z,7.18
2023-06-17T20:40:01.461Z,7.28
2023-06-17T20:42:24.702Z,7.10
2023-06-17T20:44:50.165Z,7.70
2023-06-17T20:47:14.702Z,7.32
2023-06-17T20:49:37.908Z,8.18
2023-06-17T20:52:01.467Z,8.15
2023-06-17T20:54:24.797Z,7.82
2023-06-17T20:56:48.355Z,7.15
2023-06-17T20:59:11.561Z,8.50
2023-06-17T21:01:34.686Z,7.90
2023-06-17T21:03:59.321Z,8.10
2023-06-17T21:06:23.642Z,9.10
2023-06-17T21:08:46.827Z,9.90
2023-06-17T21:11:10.005Z,9.85
2023-06-17T21:13:33.239Z,9.50
2023-06-17T21:15:56.468Z,10.65
2023-06-17T21:18:21.334Z,11.05
2023-06-17T21:20:45.797Z,9.63
2023-06-17T21:23:09.175Z,10.25
2023-06-17T21:25:32.352Z,10.73
2023-06-17T21:27:55.555Z,11.20
2023-06-17T21:30:18.965Z,10.63
2023-06-17T21:32:43.532Z,10.07
2023-06-17T21:35:07.536Z,9.90
2023-06-17T21:37:32.088Z,10.32
2023-06-17T21:39:55.292Z,8.85
2023-06-17T21:42:18.587Z,9.55
2023-06-17T21:44:41.766Z,9.07
2023-06-17T21:47:05.720Z,8.38
2023-06-17T21:49:29.295Z,7.63
2023-06-17T21:51:52.583Z,7.88
2023-06-17T21:54:17.239Z,7.70
2023-06-17T21:56:40.461Z,7.90
2023-06-17T21:59:03.787Z,8.00
2023-06-17T22:01:27.083Z,8.70
2023-06-17T22:03:50.597Z,8.40
2023-06-17T22:06:13.851Z,8.63
2023-06-17T22:08:43.428Z,8.77
2023-06-17T22:11:09.159Z,8.45
2023-06-17T22:13:32.306Z,9.05
2023-06-17T22:15:55.628Z,8.95
2023-06-17T22:18:18.893Z,8.52
2023-06-17T22:20:42.101Z,8.57
2023-06-17T22:23:05.262Z,8.57
2023-06-17T22:25:28.504Z,8.63
2023-06-17T22:27:54.413Z,8.93
2023-06-17T22:30:17.467Z,9.27
2023-06-17T22:32:40.598Z,9.80
2023-06-17T22:35:03.884Z,10.18
2023-06-17T22:37:27.094Z,9.80
2023-06-17T22:39:50.275Z,9.90
2023-06-17T22:42:13.443Z,9.68
2023-06-17T22:44:38.048Z,9.38
2023-06-17T22:47:01.295Z,9.60
2023-06-17T22:49:24.522Z,9.55
2023-06-17T22:51:47.871Z,9.70
2023-06-17T22:54:11.774Z,9.60
2023-06-17T22:56:35.000Z,9.57
2023-06-17T22:58:58.282Z,10.05
2023-06-17T23:01:22.964Z,9.32
2023-06-17T23:03:46.173Z,9.38
2023-06-17T23:06:10.027Z,9.18
2023-06-17T23:08:33.274Z,9.23
2023-06-17T23:10:56.545Z,9.65
2023-06-17T23:13:20.254Z,9.00
2023-06-17T23:15:43.500Z,9.48
2023-06-17T23:18:08.518Z,8.90
2023-06-17T23:20:31.880Z,8.70
2023-06-17T23:22:55.190Z,9.15
2023-06-17T23:25:18.689Z,8.65
2023-06-17T23:27:44.330Z,8.93
2023-06-17T23:30:09.704Z,9.02
2023-06-17T23:32:33.446Z,9.68
2023-06-17T23:35:00.444Z,9.43
2023-06-17T23:37:25.339Z,9.18
2023-06-17T23:39:48.651Z,9.63
2023-06-17T23:42:12.111Z,9.70
2023-06-17T23:44:35.897Z,9.65
2023-06-17T23:46:59.115Z,9.95
2023-06-17T23:49:22.359Z,9.45
2023-06-17T23:51:47.205Z,10.15
2023-06-17T23:54:10.343Z,9.98
2023-06-17T23:56:33.559Z,9.90
2023-06-17T23:58:56.763Z,9.88
